createdAt,value
2023-05-25T00:02:06.381Z,95136.50
2023-05-25T00:04:34.783Z,95136.16
2023-05-25T00:07:02.751Z,95134.50
2023-05-25T00:09:31.720Z,95145.16
2023-05-25T00:11:59.850Z,95139.13
2023-05-25T00:14:27.516Z,95133.69
2023-05-25T00:16:55.346Z,95143.75
2023-05-25T00:19:23.250Z,95141.28
2023-05-25T00:21:51.235Z,95138.22
2023-05-25T00:24:18.884Z,95136.44
2023-05-25T00:26:48.060Z,95142.97
2023-05-25T00:29:15.821Z,95132.69
2023-05-25T00:31:43.466Z,95127.72
2023-05-25T00:34:11.162Z,95138.59
2023-05-25T00:36:38.791Z,95130.19
2023-05-25T00:39:06.445Z,95129.94
2023-05-25T00:41:34.885Z,95129.72
2023-05-25T00:44:04.077Z,95128.28
2023-05-25T00:46:34.327Z,95125.56
2023-05-25T00:49:02.090Z,95121.19
2023-05-25T00:51:32.972Z,95117.88
2023-05-25T00:54:00.638Z,95123.81
2023-05-25T00:56:31.822Z,95118.59
2023-05-25T00:59:06.138Z,95112.56
2023-05-25T01:01:39.977Z,95112.34
2023-05-25T01:04:09.596Z,95110.66
2023-05-25T01:06:38.045Z,95118.50
2023-05-25T01:09:07.013Z,95117.69
2023-05-25T01:11:37.442Z,95123.69
2023-05-25T01:14:07.318Z,95131.88
2023-05-25T01:16:35.087Z,95132.59
2023-05-25T01:19:02.919Z,95124.19
2023-05-25T01:21:37.983Z,95129.63
2023-05-25T01:24:12.033Z,95120.41
2023-05-25T01:26:43.837Z,95127.75
2023-05-25T01:29:12.508Z,95132.59
2023-05-25T01:31:40.510Z,95127.63
2023-05-25T01:34:08.657Z,95131.88
2023-05-25T01:36:37.727Z,95124.41
2023-05-25T01:39:06.498Z,95124.66
2023-05-25T01:41:34.180Z,95125.41
2023-05-25T01:44:01.755Z,95120.53
2023-05-25T01:46:35.488Z,95123.59
2023-05-25T01:49:12.630Z,95126.09
2023-05-25T01:51:49.198Z,95123.59
2023-05-25T01:54:20.143Z,95120.31
2023-05-25T01:56:49.054Z,95117.47
2023-05-25T01:59:19.929Z,95115.56
2023-05-25T02:01:49.210Z,95113.34
2023-05-25T02:04:18.610Z,95106.25
2023-05-25T02:06:50.652Z,95108.59
2023-05-25T02:09:18.324Z,95109.34
2023-05-25T02:11:46.067Z,95120.00
2023-05-25T02:14:13.707Z,95117.75
2023-05-25T02:16:41.320Z,95107.59
2023-05-25T02:19:08.892Z,95100.16
2023-05-25T02:21:37.675Z,95105.59
2023-05-25T02:24:09.451Z,95112.09
2023-05-25T02:26:37.131Z,95104.91
2023-05-25T02:29:05.420Z,95100.75
2023-05-25T02:31:33.187Z,95106.91
2023-05-25T02:34:00.833Z,95110.91
2023-05-25T02:36:28.476Z,95106.78
2023-05-25T02:38:56.077Z,95111.03
2023-05-25T02:41:26.370Z,95104.91
2023-05-25T02:43:54.310Z,95110.09
2023-05-25T02:46:22.914Z,95117.19
2023-05-25T02:48:51.572Z,95115.50
2023-05-25T02:51:19.313Z,95111.94
2023-05-25T02:53:46.888Z,95112.84
2023-05-25T02:56:14.492Z,95115.66
2023-05-25T02:58:43.577Z,95122.75
2023-05-25T03:01:18.229Z,95127.50
2023-05-25T03:03:47.026Z,95123.00
2023-05-25T03:06:16.048Z,95133.78
2023-05-25T03:08:43.656Z,95129.53
2023-05-25T03:11:11.281Z,95123.28
2023-05-25T03:13:38.878Z,95121.63
2023-05-25T03:16:08.464Z,95126.13
2023-05-25T03:18:36.128Z,95116.00
2023-05-25T03:21:03.739Z,95133.34
2023-05-25T03:23:31.343Z,95124.25
2023-05-25T03:25:59.072Z,95128.25
2023-05-25T03:28:26.689Z,95123.75
2023-05-25T03:30:54.270Z,95138.19
2023-05-25T03:33:23.289Z,95136.97
2023-05-25T03:35:50.881Z,95138.63
2023-05-25T03:38:18.499Z,95143.00
2023-05-25T03:40:46.137Z,95132.28
2023-05-25T03:43:13.889Z,95131.22
2023-05-25T03:45:41.627Z,95132.28
2023-05-25T03:48:09.310Z,95132.66
2023-05-25T03:50:40.057Z,95126.47
2023-05-25T03:53:08.643Z,95128.97
2023-05-25T03:55:36.302Z,95140.69
2023-05-25T03:58:03.914Z,95136.41
2023-05-25T04:00:31.532Z,95142.19
2023-05-25T04:02:59.522Z,95137.50
2023-05-25T04:05:27.584Z,95144.69
2023-05-25T04:07:57.573Z,95148.38
2023-05-25T04:10:25.313Z,95146.16
2023-05-25T04:12:56.634Z,95144.72
2023-05-25T04:15:25.092Z,95137.28
2023-05-25T04:17:52.748Z,95136.56
2023-05-25T04:20:20.586Z,95143.44
2023-05-25T04:22:48.283Z,95146.50
2023-05-25T04:25:19.869Z,95151.22
2023-05-25T04:27:47.658Z,95153.25
2023-05-25T04:30:15.715Z,95153.72
2023-05-25T04:32:45.780Z,95156.09
2023-05-25T04:35:14.555Z,95153.59
2023-05-25T04:37:42.255Z,95151.94
2023-05-25T04:40:11.661Z,95159.03
2023-05-25T04:42:40.809Z,95157.84
2023-05-25T04:45:10.206Z,95152.06
2023-05-25T04:47:41.063Z,95148.97
2023-05-25T04:50:10.207Z,95152.41
2023-05-25T04:52:37.866Z,95150.97
2023-05-25T04:55:05.988Z,95148.72
2023-05-25T04:57:33.610Z,95149.91
2023-05-25T05:00:02.569Z,95150.97
2023-05-25T05:02:30.181Z,95149.16
2023-05-25T05:04:57.779Z,95155.09
2023-05-25T05:07:25.594Z,95158.03
2023-05-25T05:09:53.217Z,95160.41
2023-05-25T05:12:20.891Z,95163.56
2023-05-25T05:14:48.536Z,95156.66
2023-05-25T05:17:18.539Z,95166.84
2023-05-25T05:19:46.136Z,95175.34
2023-05-25T05:22:15.932Z,95173.34
2023-05-25T05:24:43.664Z,95170.47
2023-05-25T05:27:12.191Z,95171.38
2023-05-25T05:29:39.830Z,95169.09
2023-05-25T05:32:07.952Z,95176.03
2023-05-25T05:34:37.578Z,95174.22
2023-05-25T05:37:05.436Z,95182.25
2023-05-25T05:39:33.064Z,95180.47
2023-05-25T05:42:01.439Z,95187.66
2023-05-25T05:44:29.614Z,95191.31
2023-05-25T05:47:00.293Z,95184.84
2023-05-25T05:49:28.657Z,95190.66
2023-05-25T05:51:57.713Z,95191.56
2023-05-25T05:54:25.363Z,95195.81
2023-05-25T05:56:53.405Z,95185.78
2023-05-25T05:59:22.378Z,95192.38
2023-05-25T06:01:50.113Z,95188.69
2023-05-25T06:04:19.589Z,95190.66
2023-05-25T06:06:47.306Z,95190.50
2023-05-25T06:09:16.443Z,95187.03
2023-05-25T06:11:44.062Z,95193.63
2023-05-25T06:14:11.806Z,95195.16
2023-05-25T06:16:39.481Z,95189.69
2023-05-25T06:19:07.180Z,95190.25
2023-05-25T06:21:34.806Z,95188.69
2023-05-25T06:24:02.520Z,95189.34
2023-05-25T06:26:31.841Z,95191.31
2023-05-25T06:28:59.487Z,95195.28
2023-05-25T06:31:27.147Z,95198.38
2023-05-25T06:33:54.851Z,95194.91
2023-05-25T06:36:22.668Z,95196.88
2023-05-25T06:38:50.331Z,95204.66
2023-05-25T06:41:19.034Z,95211.25
2023-05-25T06:43:48.196Z,95211.81
2023-05-25T06:46:18.328Z,95208.56
2023-05-25T06:48:46.507Z,95210.56
2023-05-25T06:51:14.432Z,95220.16
2023-05-25T06:53:42.076Z,95221.09
2023-05-25T06:56:09.671Z,95216.44
2023-05-25T06:58:37.338Z,95216.75
2023-05-25T07:01:07.073Z,95219.91
2023-05-25T07:03:34.764Z,95220.53
2023-05-25T07:06:02.398Z,95212.31
2023-05-25T07:08:30.061Z,95217.78
2023-05-25T07:10:57.851Z,95213.94
2023-05-25T07:13:25.696Z,95222.03
2023-05-25T07:15:53.641Z,95214.75
2023-05-25T07:18:22.647Z,95217.22
2023-05-25T07:20:51.508Z,95209.28
2023-05-25T07:23:19.153Z,95215.06
2023-05-25T07:25:47.010Z,95216.28
2023-05-25T07:28:14.863Z,95212.50
2023-05-25T07:30:42.529Z,95223.16
2023-05-25T07:33:10.205Z,95222.09
2023-05-25T07:35:39.284Z,95224.28
2023-05-25T07:38:06.983Z,95229.53
2023-05-25T07:40:34.607Z,95234.22
2023-05-25T07:43:02.382Z,95240.53
2023-05-25T07:45:30.037Z,95244.47
2023-05-25T07:47:57.719Z,95243.56
2023-05-25T07:50:25.413Z,95229.72
2023-05-25T07:52:54.369Z,95236.16
2023-05-25T07:55:21.996Z,95245.56
2023-05-25T07:57:49.649Z,95243.66
2023-05-25T08:00:18.028Z,95243.22
2023-05-25T08:02:45.933Z,95244.88
2023-05-25T08:05:13.965Z,95248.44
2023-05-25T08:07:42.920Z,95244.84
2023-05-25T08:10:12.704Z,95254.44
2023-05-25T08:12:48.767Z,95252.47
2023-05-25T08:15:17.744Z,95250.53
2023-05-25T08:17:45.722Z,95257.38
2023-05-25T08:20:13.775Z,95256.56
2023-05-25T08:22:41.431Z,95270.34
2023-05-25T08:25:09.485Z,95263.47
2023-05-25T08:27:38.415Z,95264.00
2023-05-25T08:30:07.222Z,95271.16
2023-05-25T08:32:34.976Z,95262.13
2023-05-25T08:35:03.363Z,95262.91
2023-05-25T08:37:32.627Z,95265.72
2023-05-25T08:40:02.220Z,95267.03
2023-05-25T08:42:29.926Z,95265.53
2023-05-25T08:44:59.057Z,95259.78
2023-05-25T08:47:33.058Z,95273.56
2023-05-25T08:50:01.850Z,95272.78
2023-05-25T08:52:32.367Z,95268.88
2023-05-25T08:55:03.884Z,95262.94
2023-05-25T08:57:36.049Z,95268.47
2023-05-25T09:00:10.408Z,95274.63
2023-05-25T09:02:41.009Z,95279.56
2023-05-25T09:05:09.570Z,95283.44
2023-05-25T09:07:37.412Z,95287.50
2023-05-25T09:10:06.036Z,95282.34
2023-05-25T09:12:33.674Z,95293.06
2023-05-25T09:15:01.448Z,95295.34
2023-05-25T09:17:30.570Z,95285.75
2023-05-25T09:19:58.341Z,95296.41
2023-05-25T09:22:26.124Z,95297.19
2023-05-25T09:24:55.086Z,95296.66
2023-05-25T09:27:23.933Z,95305.47
2023-05-25T09:29:52.441Z,95306.31
2023-05-25T09:32:20.494Z,95315.94
2023-05-25T09:34:49.507Z,95318.19
2023-05-25T09:37:19.205Z,95318.78
2023-05-25T09:39:47.871Z,95320.13
2023-05-25T09:42:15.704Z,95321.56
2023-05-25T09:44:43.663Z,95325.44
2023-05-25T09:47:13.301Z,95326.59
2023-05-25T09:49:41.886Z,95321.16
2023-05-25T09:52:10.871Z,95327.78
2023-05-25T09:54:39.177Z,95326.38
2023-05-25T09:57:07.271Z,95323.91
2023-05-25T09:59:34.930Z,95321.75
2023-05-25T10:02:02.723Z,95321.22
2023-05-25T10:04:30.627Z,95324.19
2023-05-25T10:06:58.575Z,95330.47
2023-05-25T10:09:29.261Z,95328.03
2023-05-25T10:11:58.341Z,95332.94
2023-05-25T10:14:29.723Z,95334.31
2023-05-25T10:16:59.507Z,95328.28
2023-05-25T10:19:33.194Z,95340.72
2023-05-25T10:22:08.092Z,95339.94
2023-05-25T10:24:42.113Z,95337.47
2023-05-25T10:27:25.657Z,95338.31
2023-05-25T10:29:56.352Z,95336.13
2023-05-25T10:32:24.322Z,95331.19
2023-05-25T10:34:53.741Z,95338.31
2023-05-25T10:37:21.958Z,95330.63
2023-05-25T10:39:51.170Z,95328.13
2023-05-25T10:42:19.792Z,95332.28
2023-05-25T10:44:47.739Z,95329.53
2023-05-25T10:47:16.501Z,95334.47
2023-05-25T10:49:54.937Z,95328.16
2023-05-25T10:52:23.215Z,95321.81
2023-05-25T10:54:56.981Z,95332.81
2023-05-25T10:57:26.094Z,95335.56
2023-05-25T10:59:59.648Z,95341.59
2023-05-25T11:02:29.239Z,95335.22
2023-05-25T11:05:30.641Z,95339.31
2023-05-25T11:07:59.026Z,95342.03
2023-05-25T11:10:54.122Z,95334.59
2023-05-25T11:13:24.392Z,95333.81
2023-05-25T11:16:13.807Z,95337.00
2023-05-25T11:18:43.695Z,95334.16
2023-05-25T11:21:16.043Z,95339.59
2023-05-25T11:23:57.741Z,95333.84
2023-05-25T11:26:28.193Z,95330.56
2023-05-25T11:28:58.846Z,95335.75
2023-05-25T11:31:31.923Z,95330.53
2023-05-25T11:34:02.656Z,95335.00
2023-05-25T11:36:31.598Z,95319.06
2023-05-25T11:39:04.929Z,95324.97
2023-05-25T11:41:38.533Z,95315.56
2023-05-25T11:44:07.010Z,95317.59
2023-05-25T11:46:35.621Z,95314.88
2023-05-25T11:49:03.300Z,95323.38
2023-05-25T11:51:35.487Z,95310.81
2023-05-25T11:54:04.388Z,95317.78
2023-05-25T11:56:36.022Z,95314.25
2023-05-25T11:59:09.160Z,95317.91
2023-05-25T12:01:38.627Z,95314.41
2023-05-25T12:04:10.135Z,95315.00
2023-05-25T12:06:38.650Z,95324.84
2023-05-25T12:09:12.868Z,95316.34
2023-05-25T12:11:45.342Z,95310.00
2023-05-25T12:14:15.287Z,95311.25
2023-05-25T12:16:43.574Z,95319.66
2023-05-25T12:19:12.430Z,95309.16
2023-05-25T12:21:43.032Z,95318.91
2023-05-25T12:24:12.818Z,95319.47
2023-05-25T12:26:50.605Z,95320.00
2023-05-25T12:29:19.937Z,95310.91
2023-05-25T12:31:47.895Z,95317.56
2023-05-25T12:34:17.347Z,95313.09
2023-05-25T12:36:53.474Z,95313.22
2023-05-25T12:39:34.828Z,95316.75
2023-05-25T12:42:14.048Z,95310.16
2023-05-25T12:44:43.532Z,95306.19
2023-05-25T12:47:13.321Z,95308.53
2023-05-25T12:49:42.555Z,95305.22
2023-05-25T12:52:11.152Z,95295.59
2023-05-25T12:54:44.127Z,95300.75
2023-05-25T12:57:13.283Z,95304.53
2023-05-25T12:59:43.222Z,95297.25
2023-05-25T13:02:11.940Z,95298.41
2023-05-25T13:04:40.792Z,95309.06
2023-05-25T13:07:10.012Z,95299.69
2023-05-25T13:09:38.273Z,95298.88
2023-05-25T13:12:07.002Z,95300.56
2023-05-25T13:14:34.661Z,95290.69
2023-05-25T13:17:03.580Z,95289.09
2023-05-25T13:19:31.359Z,95293.50
2023-05-25T13:21:58.949Z,95285.41
2023-05-25T13:24:26.556Z,95296.88
2023-05-25T13:26:54.890Z,95289.63
2023-05-25T13:29:23.872Z,95279.25
2023-05-25T13:31:51.532Z,95282.09
2023-05-25T13:34:20.500Z,95290.34
2023-05-25T13:36:48.651Z,95283.03
2023-05-25T13:39:16.291Z,95285.59
2023-05-25T13:41:43.927Z,95286.63
2023-05-25T13:44:14.556Z,95288.25
2023-05-25T13:46:43.537Z,95285.91
2023-05-25T13:49:11.843Z,95286.88
2023-05-25T13:51:41.406Z,95279.81
2023-05-25T13:54:09.062Z,95285.31
2023-05-25T13:56:36.769Z,95277.59
2023-05-25T13:59:04.402Z,95277.97
2023-05-25T14:01:33.066Z,95280.34
2023-05-25T14:04:00.993Z,95280.75
2023-05-25T14:06:28.912Z,95275.59
2023-05-25T14:08:58.199Z,95271.00
2023-05-25T14:11:28.584Z,95276.94
2023-05-25T14:13:56.555Z,95278.41
2023-05-25T14:16:24.259Z,95276.34
2023-05-25T14:18:52.064Z,95269.66
2023-05-25T14:21:19.701Z,95272.75
2023-05-25T14:23:47.366Z,95268.66
2023-05-25T14:26:16.353Z,95278.09
2023-05-25T14:28:44.014Z,95277.34
2023-05-25T14:31:12.969Z,95276.47
2023-05-25T14:33:42.868Z,95279.03
2023-05-25T14:36:10.770Z,95284.25
2023-05-25T14:38:38.447Z,95276.59
2023-05-25T14:41:06.226Z,95274.53
2023-05-25T14:43:35.597Z,95276.09
2023-05-25T14:46:03.189Z,95273.09
2023-05-25T14:48:30.825Z,95270.53
2023-05-25T14:51:00.161Z,95267.13
2023-05-25T14:53:27.755Z,95275.03
2023-05-25T14:55:55.341Z,95278.63
2023-05-25T14:58:23.045Z,95269.69
2023-05-25T15:00:51.995Z,95270.34
2023-05-25T15:03:19.711Z,95272.69
2023-05-25T15:05:47.550Z,95275.03
2023-05-25T15:08:15.350Z,95280.06
2023-05-25T15:10:42.928Z,95277.50
2023-05-25T15:13:13.085Z,95275.38
2023-05-25T15:15:41.768Z,95275.13
2023-05-25T15:18:10.830Z,95275.78
2023-05-25T15:20:38.599Z,95270.03
2023-05-25T15:23:06.320Z,95266.22
2023-05-25T15:25:35.631Z,95267.25
2023-05-25T15:28:04.324Z,95274.94
2023-05-25T15:30:33.215Z,95269.69
2023-05-25T15:33:01.000Z,95276.59
2023-05-25T15:35:32.364Z,95270.75
2023-05-25T15:38:01.075Z,95265.81
2023-05-25T15:40:29.127Z,95263.66
2023-05-25T15:42:56.739Z,95266.16
2023-05-25T15:45:24.968Z,95267.53
2023-05-25T15:47:52.589Z,95271.22
2023-05-25T15:50:20.318Z,95273.50
2023-05-25T15:52:49.284Z,95268.28
2023-05-25T15:55:16.926Z,95269.19
2023-05-25T15:57:44.547Z,95263.56
2023-05-25T16:00:13.603Z,95270.63
2023-05-25T16:02:41.244Z,95266.94
2023-05-25T16:05:09.723Z,95268.19
2023-05-25T16:07:37.303Z,95270.84
2023-05-25T16:10:07.333Z,95266.78
2023-05-25T16:12:49.033Z,95268.78
2023-05-25T16:15:17.451Z,95272.25
2023-05-25T16:17:45.941Z,95275.34
2023-05-25T16:20:14.020Z,95273.19
2023-05-25T16:22:42.227Z,95272.38
2023-05-25T16:25:11.703Z,95273.28
2023-05-25T16:27:39.452Z,95278.41
2023-05-25T16:30:08.882Z,95275.34
2023-05-25T16:32:37.859Z,95274.13
2023-05-25T16:35:06.155Z,95277.31
2023-05-25T16:37:33.921Z,95278.81
2023-05-25T16:40:01.642Z,95278.91
2023-05-25T16:42:31.820Z,95283.69
2023-05-25T16:44:59.426Z,95282.69
2023-05-25T16:47:27.091Z,95284.03
2023-05-25T16:49:54.752Z,95278.47
2023-05-25T16:52:22.404Z,95277.28
2023-05-25T16:54:50.046Z,95281.84
2023-05-25T16:57:17.677Z,95280.81
2023-05-25T16:59:46.667Z,95287.72
2023-05-25T17:02:14.395Z,95288.22
2023-05-25T17:04:42.034Z,95284.94
2023-05-25T17:07:09.852Z,95279.91
2023-05-25T17:09:37.762Z,95285.47
2023-05-25T17:12:06.548Z,95282.38
2023-05-25T17:14:34.239Z,95289.28
2023-05-25T17:17:03.336Z,95276.75
2023-05-25T17:19:31.166Z,95275.94
2023-05-25T17:21:58.940Z,95282.59
2023-05-25T17:24:26.691Z,95288.13
2023-05-25T17:26:54.566Z,95282.38
2023-05-25T17:29:22.247Z,95276.31
2023-05-25T17:31:50.233Z,95270.56
2023-05-25T17:34:19.479Z,95277.13
2023-05-25T17:36:48.125Z,95280.94
2023-05-25T17:39:15.811Z,95282.59
2023-05-25T17:41:45.420Z,95283.00
2023-05-25T17:44:13.128Z,95283.59
2023-05-25T17:46:40.853Z,95283.59
2023-05-25T17:49:08.512Z,95287.78
2023-05-25T17:51:42.645Z,95295.03
2023-05-25T17:57:00.915Z,95293.34
2023-05-25T17:59:28.631Z,95288.78
2023-05-25T18:01:56.317Z,95291.25
2023-05-25T18:04:23.986Z,95288.19
2023-05-25T18:06:52.944Z,95294.47
2023-05-25T18:09:20.769Z,95298.50
2023-05-25T18:11:48.691Z,95305.34
2023-05-25T18:14:16.315Z,95294.25
2023-05-25T18:16:44.823Z,95301.78
2023-05-25T18:19:14.722Z,95300.44
2023-05-25T18:21:42.337Z,95298.31
2023-05-25T18:24:11.900Z,95310.72
2023-05-25T18:26:41.588Z,95313.19
2023-05-25T18:29:09.686Z,95312.50
2023-05-25T18:31:37.380Z,95315.03
2023-05-25T18:34:06.743Z,95319.81
2023-05-25T18:36:34.364Z,95316.06
2023-05-25T18:39:01.966Z,95316.41
2023-05-25T18:41:31.043Z,95323.34
2023-05-25T18:43:58.697Z,95311.19
2023-05-25T18:46:27.717Z,95310.91
2023-05-25T18:48:55.709Z,95312.00
2023-05-25T18:51:25.797Z,95308.78
2023-05-25T18:53:53.565Z,95325.09
2023-05-25T18:56:21.372Z,95322.38
2023-05-25T18:58:52.102Z,95322.75
2023-05-25T19:01:19.822Z,95334.13
2023-05-25T19:03:47.586Z,95332.47
2023-05-25T19:06:15.246Z,95336.13
2023-05-25T19:08:42.883Z,95330.69
2023-05-25T19:11:10.485Z,95334.59
2023-05-25T19:13:38.084Z,95332.22
2023-05-25T19:16:07.290Z,95335.53
2023-05-25T19:18:34.909Z,95346.63
2023-05-25T19:21:02.559Z,95351.91
2023-05-25T19:23:30.176Z,95354.38
2023-05-25T19:25:57.821Z,95354.41
2023-05-25T19:28:25.667Z,95360.22
2023-05-25T19:30:53.298Z,95366.03
2023-05-25T19:33:22.243Z,95362.75
2023-05-25T19:35:49.833Z,95363.84
2023-05-25T19:38:17.479Z,95371.56
2023-05-25T19:40:45.097Z,95372.66
2023-05-25T19:43:12.696Z,95372.66
2023-05-25T19:45:40.409Z,95366.66
2023-05-25T19:48:08.104Z,95371.34
2023-05-25T19:50:37.052Z,95373.25
2023-05-25T19:53:04.702Z,95374.09
2023-05-25T19:55:33.620Z,95377.16
2023-05-25T19:58:01.285Z,95375.53
2023-05-25T20:00:28.964Z,95383.53
2023-05-25T20:02:56.742Z,95382.16
2023-05-25T20:05:24.467Z,95379.41
2023-05-25T20:07:53.666Z,95388.75
2023-05-25T20:10:21.525Z,95391.81
2023-05-25T20:12:49.606Z,95383.84
2023-05-25T20:15:17.610Z,95389.94
2023-05-25T20:17:45.587Z,95395.47
2023-05-25T20:20:13.602Z,95389.97
2023-05-25T20:22:41.539Z,95396.84
2023-05-25T20:25:10.855Z,95395.75
2023-05-25T20:27:38.640Z,95399.38
2023-05-25T20:30:07.679Z,95391.13
2023-05-25T20:32:35.471Z,95404.03
2023-05-25T20:35:03.459Z,95415.31
2023-05-25T20:37:31.277Z,95409.50
2023-05-25T20:39:59.137Z,95408.94
2023-05-25T20:42:28.345Z,95411.09
2023-05-25T20:44:56.173Z,95405.34
2023-05-25T20:47:23.968Z,95404.50
2023-05-25T20:49:51.702Z,95402.00
2023-05-25T20:52:21.111Z,95404.72
2023-05-25T20:54:48.826Z,95400.00
2023-05-25T20:57:16.748Z,95412.88
2023-05-25T20:59:46.224Z,95414.22
2023-05-25T21:02:13.939Z,95406.06
2023-05-25T21:04:41.593Z,95410.75
2023-05-25T21:07:09.313Z,95414.59
2023-05-25T21:09:36.962Z,95414.06
2023-05-25T21:12:04.918Z,95412.09
2023-05-25T21:14:33.534Z,95411.47
2023-05-25T21:17:02.570Z,95419.72
2023-05-25T21:19:30.470Z,95411.22
2023-05-25T21:21:58.139Z,95412.03
2023-05-25T21:24:25.859Z,95420.00
2023-05-25T21:26:53.497Z,95414.00
2023-05-25T21:29:21.516Z,95416.78
2023-05-25T21:31:49.292Z,95408.53
2023-05-25T21:34:18.406Z,95415.13
2023-05-25T21:36:46.057Z,95405.19
2023-05-25T21:39:13.644Z,95412.53
2023-05-25T21:41:41.622Z,95408.44
2023-05-25T21:44:09.238Z,95405.94
2023-05-25T21:46:37.989Z,95400.72
2023-05-25T21:49:05.642Z,95396.25
2023-05-25T21:51:34.647Z,95398.97
2023-05-25T21:54:02.385Z,95400.31
2023-05-25T21:56:30.049Z,95406.09
2023-05-25T21:58:57.670Z,95406.00
2023-05-25T22:01:25.484Z,95409.22
2023-05-25T22:03:53.185Z,95406.38
2023-05-25T22:06:20.831Z,95404.34
2023-05-25T22:08:49.814Z,95405.75
2023-05-25T22:11:17.443Z,95403.50
2023-05-25T22:13:45.065Z,95407.31
2023-05-25T22:16:12.711Z,95409.19
2023-05-25T22:18:40.343Z,95404.97
2023-05-25T22:21:07.973Z,95401.38
2023-05-25T22:23:35.895Z,95398.34
2023-05-25T22:26:05.616Z,95404.56
2023-05-25T22:28:33.398Z,95404.22
2023-05-25T22:31:01.123Z,95406.91
2023-05-25T22:33:28.779Z,95406.16
2023-05-25T22:35:56.461Z,95410.59
2023-05-25T22:38:24.088Z,95412.16
2023-05-25T22:40:51.714Z,95404.88
2023-05-25T22:43:20.682Z,95404.03
2023-05-25T22:45:48.309Z,95398.91
2023-05-25T22:48:15.914Z,95398.81
2023-05-25T22:50:43.533Z,95402.06
2023-05-25T22:53:11.189Z,95404.00
2023-05-25T22:55:38.878Z,95408.59
2023-05-25T22:58:06.490Z,95411.34
2023-05-25T23:00:35.464Z,95410.81
2023-05-25T23:03:04.525Z,95410.38
2023-05-25T23:05:32.328Z,95407.66
2023-05-25T23:07:59.926Z,95406.00
2023-05-25T23:10:27.539Z,95402.13
2023-05-25T23:12:56.227Z,95398.06
2023-05-25T23:15:23.884Z,95405.09
2023-05-25T23:17:52.853Z,95403.66
2023-05-25T23:20:20.639Z,95397.88
2023-05-25T23:22:48.769Z,95395.41
2023-05-25T23:25:16.540Z,95405.50
2023-05-25T23:27:44.121Z,95397.03
2023-05-25T23:30:12.636Z,95391.25
2023-05-25T23:32:40.313Z,95393.00
2023-05-25T23:35:10.378Z,95387.97
2023-05-25T23:37:38.031Z,95391.84
2023-05-25T23:40:06.731Z,95389.84
2023-05-25T23:42:39.198Z,95392.47
2023-05-25T23:45:09.798Z,95386.59
2023-05-25T23:47:37.425Z,95389.50
2023-05-25T23:50:05.426Z,95388.63
2023-05-25T23:52:34.462Z,95388.31
2023-05-25T23:55:02.070Z,95390.38
2023-05-25T23:57:29.666Z,95391.66
2023-05-25T23:59:57.335Z,95390.72
